createdAt,value
2022-09-28T00:00:26.250Z,9.54
2022-09-28T00:01:26.316Z,9.53
2022-09-28T00:02:26.322Z,9.51
2022-09-28T00:03:26.487Z,9.52
2022-09-28T00:04:26.564Z,9.53
2022-09-28T00:05:26.298Z,9.48
2022-09-28T00:06:26.323Z,9.48
2022-09-28T00:07:26.143Z,9.49
2022-09-28T00:08:29.157Z,9.49
2022-09-28T00:09:26.486Z,9.46
2022-09-28T00:10:26.304Z,9.47
2022-09-28T00:11:26.121Z,9.49
2022-09-28T00:12:26.187Z,9.46
2022-09-28T00:13:26.288Z,9.46
2022-09-28T00:14:26.492Z,9.45
2022-09-28T00:15:26.140Z,9.47
2022-09-28T00:16:26.247Z,9.48
2022-09-28T00:17:26.151Z,9.51
2022-09-28T00:18:26.563Z,9.53
2022-09-28T00:19:32.182Z,9.5
2022-09-28T00:20:26.309Z,9.51
2022-09-28T00:21:26.276Z,9.52
2022-09-28T00:22:26.241Z,9.5
2022-09-28T00:23:26.147Z,9.48
2022-09-28T00:24:27.800Z,9.49
2022-09-28T00:25:26.265Z,9.49
2022-09-28T00:26:26.232Z,9.5
2022-09-28T00:27:26.300Z,9.51
2022-09-28T00:28:26.270Z,9.49
2022-09-28T00:29:26.505Z,9.46
2022-09-28T00:30:29.259Z,9.44
2022-09-28T00:31:26.401Z,9.43
2022-09-28T00:32:26.137Z,9.43
2022-09-28T00:33:26.563Z,9.44
2022-09-28T00:34:26.498Z,9.43
2022-09-28T00:35:26.257Z,9.47
2022-09-28T00:36:26.258Z,9.49
2022-09-28T00:37:26.138Z,9.47
2022-09-28T00:38:26.127Z,9.44
2022-09-28T00:39:26.577Z,9.44
2022-09-28T00:40:26.359Z,9.41
2022-09-28T00:41:29.323Z,9.42
2022-09-28T00:42:26.255Z,9.45
2022-09-28T00:43:26.238Z,9.44
2022-09-28T00:44:26.539Z,9.42
2022-09-28T00:45:26.364Z,9.43
2022-09-28T00:46:26.241Z,9.43
2022-09-28T00:47:26.238Z,9.47
2022-09-28T00:48:26.560Z,9.46
2022-09-28T00:49:26.494Z,9.46
2022-09-28T00:50:26.325Z,9.46
2022-09-28T00:51:26.263Z,9.48
2022-09-28T00:52:29.256Z,9.46
2022-09-28T00:53:26.352Z,9.5
2022-09-28T00:54:26.489Z,9.52
2022-09-28T00:55:26.283Z,9.52
2022-09-28T00:56:26.126Z,9.5
2022-09-28T00:57:26.149Z,9.51
2022-09-28T00:58:26.122Z,9.5
2022-09-28T00:59:26.564Z,9.53
2022-09-28T01:00:26.282Z,9.57
2022-09-28T01:01:26.372Z,9.54
2022-09-28T01:02:26.329Z,9.51
2022-09-28T01:03:32.215Z,9.51
2022-09-28T01:04:29.858Z,9.51
2022-09-28T01:05:26.311Z,9.5
2022-09-28T01:06:26.189Z,9.51
2022-09-28T01:07:26.282Z,9.5
2022-09-28T01:08:26.333Z,9.51
2022-09-28T01:09:26.492Z,9.5
2022-09-28T01:10:26.198Z,9.52
2022-09-28T01:11:26.294Z,9.56
2022-09-28T01:12:26.322Z,9.61
2022-09-28T01:13:26.353Z,9.65
2022-09-28T01:14:32.223Z,9.64
2022-09-28T01:15:26.192Z,9.65
2022-09-28T01:16:26.209Z,9.65
2022-09-28T01:17:26.209Z,9.67
2022-09-28T01:18:26.572Z,9.68
2022-09-28T01:19:26.490Z,9.7
2022-09-28T01:20:26.127Z,9.69
2022-09-28T01:21:26.190Z,9.71
2022-09-28T01:22:26.121Z,9.75
2022-09-28T01:23:26.257Z,9.7
2022-09-28T01:24:26.493Z,9.67
2022-09-28T01:25:29.262Z,9.7
2022-09-28T01:26:26.244Z,9.69
2022-09-28T01:27:26.271Z,9.71
2022-09-28T01:28:26.288Z,9.7
2022-09-28T01:29:26.559Z,9.69
2022-09-28T01:30:26.226Z,9.69
2022-09-28T01:31:26.321Z,9.67
2022-09-28T01:32:26.147Z,9.74
2022-09-28T01:33:26.555Z,9.76
2022-09-28T01:34:26.491Z,9.75
2022-09-28T01:35:26.197Z,9.72
2022-09-28T01:36:29.339Z,9.68
2022-09-28T01:37:26.310Z,9.71
2022-09-28T01:38:26.143Z,9.69
2022-09-28T01:39:26.566Z,9.66
2022-09-28T01:40:26.311Z,9.68
2022-09-28T01:41:26.112Z,9.69
2022-09-28T01:42:26.133Z,9.72
2022-09-28T01:43:26.120Z,9.7
2022-09-28T01:44:26.563Z,9.71
2022-09-28T01:45:26.343Z,9.73
2022-09-28T01:46:26.219Z,9.75
2022-09-28T01:47:29.173Z,9.78
2022-09-28T01:48:26.488Z,9.77
2022-09-28T01:49:26.495Z,9.8
2022-09-28T01:50:26.230Z,9.82
2022-09-28T01:51:26.270Z,9.85
2022-09-28T01:52:26.316Z,9.85
2022-09-28T01:53:26.134Z,9.83
2022-09-28T01:54:26.565Z,9.77
2022-09-28T01:55:26.296Z,9.85
2022-09-28T01:56:26.247Z,9.84
2022-09-28T01:57:26.346Z,9.81
2022-09-28T01:58:29.271Z,9.73
2022-09-28T01:59:26.487Z,9.74
2022-09-28T02:00:26.465Z,9.77
2022-09-28T02:01:26.206Z,9.8
2022-09-28T02:02:26.240Z,9.77
2022-09-28T02:03:26.567Z,9.79
2022-09-28T02:04:26.261Z,9.78
2022-09-28T02:05:26.124Z,9.78
2022-09-28T02:06:26.138Z,9.78
2022-09-28T02:07:26.132Z,9.8
2022-09-28T02:08:26.124Z,9.79
2022-09-28T02:09:33.874Z,9.79
2022-09-28T02:10:26.287Z,9.82
2022-09-28T02:11:26.106Z,9.83
2022-09-28T02:12:26.154Z,9.82
2022-09-28T02:13:26.154Z,9.85
2022-09-28T02:14:26.551Z,9.86
2022-09-28T02:15:26.239Z,9.88
2022-09-28T02:16:26.208Z,9.91
2022-09-28T02:17:26.222Z,9.94
2022-09-28T02:18:26.497Z,9.93
2022-09-28T02:19:26.481Z,9.94
2022-09-28T02:20:29.274Z,9.95
2022-09-28T02:21:26.290Z,9.92
2022-09-28T02:22:26.689Z,9.93
2022-09-28T02:23:26.335Z,9.92
2022-09-28T02:24:26.489Z,9.86
2022-09-28T02:25:26.214Z,9.88
2022-09-28T02:26:26.139Z,9.91
2022-09-28T02:27:26.137Z,9.92
2022-09-28T02:28:26.144Z,9.93
2022-09-28T02:29:26.567Z,9.93
2022-09-28T02:30:26.339Z,9.96
2022-09-28T02:31:29.268Z,10.01
2022-09-28T02:32:26.322Z,10.04
2022-09-28T02:33:26.271Z,9.99
2022-09-28T02:34:26.492Z,9.91
2022-09-28T02:35:26.203Z,9.88
2022-09-28T02:36:26.139Z,9.83
2022-09-28T02:37:26.142Z,9.86
2022-09-28T02:38:26.138Z,9.82
2022-09-28T02:39:26.569Z,9.74
2022-09-28T02:40:26.287Z,9.68
2022-09-28T02:41:26.109Z,9.64
2022-09-28T02:42:29.151Z,9.64
2022-09-28T02:43:26.302Z,9.62
2022-09-28T02:44:26.562Z,9.59
2022-09-28T02:45:26.267Z,9.57
2022-09-28T02:46:26.211Z,9.54
2022-09-28T02:47:26.145Z,9.57
2022-09-28T02:48:42.668Z,9.59
2022-09-28T02:49:26.558Z,9.59
2022-09-28T02:50:26.349Z,9.57
2022-09-28T02:51:26.229Z,9.53
2022-09-28T02:52:26.189Z,9.49
2022-09-28T02:53:29.247Z,9.51
2022-09-28T02:54:26.487Z,9.54
2022-09-28T02:55:26.217Z,9.54
2022-09-28T02:56:26.128Z,9.55
2022-09-28T02:57:26.114Z,9.5
2022-09-28T02:58:26.144Z,9.5
2022-09-28T02:59:26.493Z,9.43
2022-09-28T03:00:26.248Z,9.37
2022-09-28T03:01:26.416Z,9.35
2022-09-28T03:02:26.412Z,9.31
2022-09-28T03:03:26.488Z,9.28
2022-09-28T03:04:30.683Z,9.24
2022-09-28T03:05:26.335Z,9.22
2022-09-28T03:06:26.152Z,9.21
2022-09-28T03:07:26.187Z,9.24
2022-09-28T03:08:26.231Z,9.25
2022-09-28T03:09:26.254Z,9.27
2022-09-28T03:10:26.215Z,9.28
2022-09-28T03:11:26.119Z,9.28
2022-09-28T03:12:26.259Z,9.26
2022-09-28T03:13:26.252Z,9.24
2022-09-28T03:14:26.562Z,9.23
2022-09-28T03:15:29.171Z,9.22
2022-09-28T03:16:26.446Z,9.22
2022-09-28T03:17:26.227Z,9.21
2022-09-28T03:18:26.568Z,9.17
2022-09-28T03:19:26.495Z,9.11
2022-09-28T03:20:26.221Z,9.04
2022-09-28T03:21:26.137Z,9.06
2022-09-28T03:22:26.128Z,9.05
2022-09-28T03:23:26.188Z,9.08
2022-09-28T03:24:26.565Z,9.08
2022-09-28T03:25:26.310Z,9.08
2022-09-28T03:26:29.306Z,9.06
2022-09-28T03:27:26.344Z,9.06
2022-09-28T03:28:26.351Z,9.01
2022-09-28T03:29:26.493Z,9.03
2022-09-28T03:30:26.191Z,8.97
2022-09-28T03:31:26.348Z,8.97
2022-09-28T03:32:26.267Z,8.97
2022-09-28T03:33:26.565Z,9.03
2022-09-28T03:34:26.323Z,9.06
2022-09-28T03:35:26.253Z,9.09
2022-09-28T03:36:26.348Z,9.12
2022-09-28T03:37:29.229Z,9.09
2022-09-28T03:38:26.239Z,9.09
2022-09-28T03:39:26.565Z,9.11
2022-09-28T03:40:26.289Z,9.15
2022-09-28T03:41:26.224Z,9.17
2022-09-28T03:42:26.211Z,9.18
2022-09-28T03:43:26.134Z,9.19
2022-09-28T03:44:26.565Z,9.22
2022-09-28T03:45:26.248Z,9.24
2022-09-28T03:46:26.256Z,9.23
2022-09-28T03:47:26.231Z,9.24
2022-09-28T03:48:33.005Z,9.21
2022-09-28T03:49:26.491Z,9.2
2022-09-28T03:50:26.337Z,9.21
2022-09-28T03:51:26.213Z,9.24
2022-09-28T03:52:26.257Z,9.23
2022-09-28T03:53:26.289Z,9.23
2022-09-28T03:54:26.494Z,9.21
2022-09-28T03:55:26.227Z,9.2
2022-09-28T03:56:26.146Z,9.15
2022-09-28T03:57:26.150Z,9.17
2022-09-28T03:58:26.237Z,9.17
2022-09-28T03:59:32.209Z,9.14
2022-09-28T04:00:26.199Z,9.16
2022-09-28T04:01:26.301Z,9.19
2022-09-28T04:02:26.231Z,9.22
2022-09-28T04:03:26.562Z,9.23
2022-09-28T04:04:26.487Z,9.24
2022-09-28T04:05:26.135Z,9.23
2022-09-28T04:06:26.192Z,9.21
2022-09-28T04:07:30.748Z,9.23
2022-09-28T04:08:26.127Z,9.22
2022-09-28T04:09:26.567Z,9.19
2022-09-28T04:10:29.261Z,9.21
2022-09-28T04:11:26.202Z,9.25
2022-09-28T04:12:26.133Z,9.31
2022-09-28T04:13:26.136Z,9.34
2022-09-28T04:14:26.241Z,9.39
2022-09-28T04:15:26.218Z,9.4
2022-09-28T04:16:26.246Z,9.38
2022-09-28T04:17:26.240Z,9.34
2022-09-28T04:18:26.570Z,9.3
2022-09-28T04:19:26.488Z,9.32
2022-09-28T04:20:26.241Z,9.32
2022-09-28T04:21:29.226Z,9.27
2022-09-28T04:22:26.294Z,9.27
2022-09-28T04:23:26.153Z,9.16
2022-09-28T04:24:26.568Z,9.15
2022-09-28T04:25:26.211Z,9.17
2022-09-28T04:26:26.135Z,9.14
2022-09-28T04:27:26.129Z,9.13
2022-09-28T04:28:26.188Z,9.14
2022-09-28T04:29:26.573Z,9.15
2022-09-28T04:30:26.342Z,9.19
2022-09-28T04:31:26.338Z,9.21
2022-09-28T04:32:29.243Z,9.21
2022-09-28T04:33:26.493Z,9.21
2022-09-28T04:34:26.565Z,9.21
2022-09-28T04:35:26.356Z,9.27
2022-09-28T04:36:26.267Z,9.28
2022-09-28T04:37:26.177Z,9.25
2022-09-28T04:38:41.786Z,9.31
2022-09-28T04:39:26.569Z,9.33
2022-09-28T04:40:26.319Z,9.34
2022-09-28T04:41:26.201Z,9.27
2022-09-28T04:42:26.124Z,9.27
2022-09-28T04:43:29.230Z,9.37
2022-09-28T04:44:26.507Z,9.39
2022-09-28T04:45:26.298Z,9.41
2022-09-28T04:46:26.115Z,9.42
2022-09-28T04:47:26.113Z,9.44
2022-09-28T04:48:26.246Z,9.49
2022-09-28T04:49:26.493Z,9.53
2022-09-28T04:50:26.131Z,9.5
2022-09-28T04:51:26.133Z,9.48
2022-09-28T04:52:26.140Z,9.48
2022-09-28T04:53:26.250Z,9.49
2022-09-28T04:54:32.126Z,9.51
2022-09-28T04:55:26.345Z,9.5
2022-09-28T04:56:26.241Z,9.5
2022-09-28T04:57:26.243Z,9.52
2022-09-28T04:58:26.245Z,9.6
2022-09-28T04:59:26.492Z,9.67
2022-09-28T05:00:26.115Z,9.73
2022-09-28T05:01:26.270Z,9.75
2022-09-28T05:02:26.294Z,9.74
2022-09-28T05:03:26.487Z,9.73
2022-09-28T05:04:26.498Z,9.72
2022-09-28T05:05:29.131Z,9.73
2022-09-28T05:06:26.357Z,9.73
2022-09-28T05:07:26.254Z,9.75
2022-09-28T05:08:26.243Z,9.71
2022-09-28T05:09:26.217Z,9.71
2022-09-28T05:10:26.556Z,9.79
2022-09-28T05:11:26.108Z,9.8
2022-09-28T05:12:26.139Z,9.82
2022-09-28T05:13:26.198Z,9.83
2022-09-28T05:14:26.566Z,9.83
2022-09-28T05:15:26.321Z,9.83
2022-09-28T05:16:29.343Z,9.82
2022-09-28T05:17:26.336Z,9.79
2022-09-28T05:18:26.488Z,9.77
2022-09-28T05:19:26.481Z,9.7
2022-09-28T05:20:26.337Z,9.68
2022-09-28T05:21:26.368Z,9.67
2022-09-28T05:22:26.133Z,9.65
2022-09-28T05:23:26.233Z,9.68
2022-09-28T05:24:26.494Z,9.69
2022-09-28T05:25:26.206Z,9.68
2022-09-28T05:26:26.224Z,9.71
2022-09-28T05:27:29.295Z,9.69
2022-09-28T05:28:26.229Z,9.71
2022-09-28T05:29:29.037Z,9.74
2022-09-28T05:30:26.121Z,9.79
2022-09-28T05:31:26.167Z,9.78
2022-09-28T05:32:26.211Z,9.77
2022-09-28T05:33:26.493Z,9.71
2022-09-28T05:34:26.561Z,9.65
2022-09-28T05:35:26.240Z,9.63
2022-09-28T05:36:26.145Z,9.6
2022-09-28T05:37:26.117Z,9.56
2022-09-28T05:38:29.158Z,9.55
2022-09-28T05:39:26.496Z,9.53
2022-09-28T05:40:26.390Z,9.53
2022-09-28T05:41:26.194Z,9.51
2022-09-28T05:42:26.243Z,9.49
2022-09-28T05:43:26.309Z,9.55
2022-09-28T05:44:26.487Z,9.55
2022-09-28T05:45:26.243Z,9.55
2022-09-28T05:46:26.241Z,9.52
2022-09-28T05:47:26.241Z,9.47
2022-09-28T05:48:26.566Z,9.49
2022-09-28T05:49:32.233Z,9.52
2022-09-28T05:50:26.580Z,9.56
2022-09-28T05:51:26.291Z,9.61
2022-09-28T05:52:26.263Z,9.67
2022-09-28T05:53:26.249Z,9.68
2022-09-28T05:54:26.494Z,9.73
2022-09-28T05:55:26.175Z,9.75
2022-09-28T05:56:26.132Z,9.74
2022-09-28T05:57:26.146Z,9.74
2022-09-28T05:58:26.244Z,9.72
2022-09-28T05:59:26.590Z,9.75
2022-09-28T06:00:29.250Z,9.72
2022-09-28T06:01:26.429Z,9.79
2022-09-28T06:02:26.253Z,9.81
2022-09-28T06:03:26.495Z,9.79
2022-09-28T06:04:26.494Z,9.77
2022-09-28T06:05:26.311Z,9.79
2022-09-28T06:06:26.220Z,9.81
2022-09-28T06:07:26.244Z,9.82
2022-09-28T06:08:26.189Z,9.79
2022-09-28T06:09:26.579Z,9.77
2022-09-28T06:10:26.253Z,9.67
2022-09-28T06:11:29.423Z,9.66
2022-09-28T06:12:26.228Z,9.66
2022-09-28T06:13:26.246Z,9.63
2022-09-28T06:14:26.488Z,9.58
2022-09-28T06:15:26.275Z,9.54
2022-09-28T06:16:26.197Z,9.51
2022-09-28T06:17:26.246Z,9.44
2022-09-28T06:18:26.568Z,9.42
2022-09-28T06:19:26.263Z,9.43
2022-09-28T06:20:26.150Z,9.47
2022-09-28T06:21:26.147Z,9.58
2022-09-28T06:22:29.175Z,9.64
2022-09-28T06:23:26.216Z,9.69
2022-09-28T06:24:26.554Z,9.77
2022-09-28T06:25:26.346Z,9.86
2022-09-28T06:26:26.334Z,9.81
2022-09-28T06:27:26.318Z,9.77
2022-09-28T06:28:26.164Z,9.72
2022-09-28T06:29:26.610Z,9.79
2022-09-28T06:30:26.254Z,9.75
2022-09-28T06:31:26.137Z,9.71
2022-09-28T06:32:26.145Z,9.77
2022-09-28T06:33:32.209Z,9.85
2022-09-28T06:34:26.492Z,9.88
2022-09-28T06:35:26.314Z,9.94
2022-09-28T06:36:26.339Z,10.05
2022-09-28T06:37:26.227Z,10.07
2022-09-28T06:38:26.269Z,10.24
2022-09-28T06:39:26.487Z,10.31
2022-09-28T06:40:26.328Z,10.38
2022-09-28T06:41:26.181Z,10.33
2022-09-28T06:42:26.156Z,10.4
2022-09-28T06:43:26.132Z,10.42
2022-09-28T06:44:32.260Z,10.67
2022-09-28T06:45:26.458Z,10.7
2022-09-28T06:46:26.371Z,10.9
2022-09-28T06:47:26.204Z,11.13
2022-09-28T06:48:26.571Z,11.22
2022-09-28T06:49:26.487Z,11.31
2022-09-28T06:50:26.219Z,11.39
2022-09-28T06:51:26.264Z,11.44
2022-09-28T06:52:26.225Z,11.45
2022-09-28T06:53:26.155Z,11.48
2022-09-28T06:54:26.567Z,11.5
2022-09-28T06:55:29.259Z,11.48
2022-09-28T06:56:29.429Z,11.38
2022-09-28T06:57:26.128Z,11.33
2022-09-28T06:58:26.254Z,11.34
2022-09-28T06:59:26.500Z,11.36
2022-09-28T07:00:26.218Z,11.42
2022-09-28T07:01:26.200Z,11.44
2022-09-28T07:02:26.179Z,11.5
2022-09-28T07:03:26.557Z,11.61
2022-09-28T07:04:26.487Z,11.77
2022-09-28T07:05:26.309Z,11.82
2022-09-28T07:06:29.148Z,11.84
2022-09-28T07:07:26.297Z,11.72
2022-09-28T07:08:26.262Z,11.58
2022-09-28T07:09:32.420Z,11.37
2022-09-28T07:10:26.376Z,11.17
2022-09-28T07:11:26.214Z,11.01
2022-09-28T07:12:26.245Z,10.87
2022-09-28T07:13:45.196Z,10.8
2022-09-28T07:14:44.907Z,10.77
2022-09-28T07:15:26.212Z,10.71
2022-09-28T07:16:31.339Z,10.66
2022-09-28T07:17:29.494Z,10.65
2022-09-28T07:18:26.507Z,10.6
2022-09-28T07:19:26.486Z,10.6
2022-09-28T07:20:26.290Z,10.63
2022-09-28T07:21:29.858Z,10.64
2022-09-28T07:22:39.824Z,10.68
2022-09-28T07:23:26.278Z,10.66
2022-09-28T07:24:26.568Z,10.65
2022-09-28T07:25:26.241Z,10.67
2022-09-28T07:26:26.137Z,10.68
2022-09-28T07:27:28.936Z,10.71
2022-09-28T07:28:29.166Z,10.77
2022-09-28T07:29:26.361Z,10.84
2022-09-28T07:30:26.621Z,10.86
2022-09-28T07:31:26.605Z,10.85
2022-09-28T07:32:26.290Z,10.84
2022-09-28T07:33:26.229Z,10.9
2022-09-28T07:34:26.495Z,10.9
2022-09-28T07:35:26.565Z,10.98
2022-09-28T07:36:26.285Z,11.06
2022-09-28T07:37:26.276Z,11.24
2022-09-28T07:38:26.273Z,11.28
2022-09-28T07:39:29.174Z,11.3
2022-09-28T07:40:26.608Z,11.25
2022-09-28T07:41:26.286Z,11.33
2022-09-28T07:42:26.312Z,11.57
2022-09-28T07:43:26.145Z,11.79
2022-09-28T07:44:26.259Z,12.01
2022-09-28T07:45:26.501Z,12.19
2022-09-28T07:46:26.213Z,12.28
2022-09-28T07:47:27.810Z,12.38
2022-09-28T07:48:26.134Z,12.45
2022-09-28T07:49:26.568Z,12.56
2022-09-28T07:50:29.164Z,12.68
2022-09-28T07:51:26.232Z,12.77
2022-09-28T07:52:26.142Z,12.88
2022-09-28T07:53:26.162Z,12.92
2022-09-28T07:54:26.558Z,12.95
2022-09-28T07:55:26.333Z,12.93
2022-09-28T07:56:26.275Z,12.93
2022-09-28T07:57:26.272Z,13.01
2022-09-28T07:58:26.219Z,13.14
2022-09-28T07:59:26.590Z,13.22
2022-09-28T08:00:27.593Z,13.25
2022-09-28T08:01:29.262Z,13.19
2022-09-28T08:02:26.395Z,13.26
2022-09-28T08:03:26.221Z,13.29
2022-09-28T08:04:26.573Z,13.3
2022-09-28T08:05:26.342Z,13.37
2022-09-28T08:06:26.308Z,13.39
2022-09-28T08:07:26.258Z,13.39
2022-09-28T08:08:26.203Z,13.42
2022-09-28T08:09:26.497Z,13.46
2022-09-28T08:10:26.216Z,13.57
2022-09-28T08:11:26.282Z,13.59
2022-09-28T08:12:29.254Z,13.56
2022-09-28T08:13:27.317Z,13.39
2022-09-28T08:14:26.157Z,13.25
2022-09-28T08:15:26.196Z,13.14
2022-09-28T08:16:26.198Z,13.1
2022-09-28T08:17:26.205Z,13.07
2022-09-28T08:18:26.206Z,13.12
2022-09-28T08:19:26.489Z,13.21
2022-09-28T08:20:26.301Z,13.34
2022-09-28T08:21:26.263Z,13.38
2022-09-28T08:22:26.286Z,13.48
2022-09-28T08:23:29.223Z,13.52
2022-09-28T08:24:26.602Z,13.76
2022-09-28T08:25:26.319Z,13.9
2022-09-28T08:26:26.347Z,14.18
2022-09-28T08:27:26.343Z,14.51
2022-09-28T08:28:26.243Z,14.87
2022-09-28T08:29:26.498Z,15.14
2022-09-28T08:30:26.147Z,15.28
2022-09-28T08:31:26.140Z,15.52
2022-09-28T08:32:26.141Z,15.75
2022-09-28T08:33:26.262Z,15.94
2022-09-28T08:34:32.202Z,16.23
2022-09-28T08:35:26.215Z,16.22
2022-09-28T08:36:26.132Z,15.89
2022-09-28T08:37:26.136Z,15.87
2022-09-28T08:38:26.180Z,16
2022-09-28T08:39:26.564Z,16.38
2022-09-28T08:40:26.212Z,16.59
2022-09-28T08:41:26.192Z,16.61
2022-09-28T08:42:26.255Z,16.57
2022-09-28T08:43:26.182Z,16.34
2022-09-28T08:44:26.564Z,16.31
2022-09-28T08:45:29.158Z,16.06
2022-09-28T08:46:27.222Z,15.94
2022-09-28T08:47:26.327Z,16.07
2022-09-28T08:48:26.145Z,16.2
2022-09-28T08:49:26.766Z,16.2
2022-09-28T08:50:26.203Z,16.12
2022-09-28T08:51:26.241Z,15.87
2022-09-28T08:52:26.262Z,15.75
2022-09-28T08:53:26.353Z,15.66
2022-09-28T08:54:26.489Z,15.66
2022-09-28T08:55:26.285Z,15.52
2022-09-28T08:56:29.274Z,15.29
2022-09-28T08:57:26.259Z,15.38
2022-09-28T08:58:26.123Z,15.48
2022-09-28T08:59:26.235Z,15.49
2022-09-28T09:00:26.198Z,15.56
2022-09-28T09:01:26.271Z,15.58
2022-09-28T09:02:26.242Z,15.4
2022-09-28T09:03:26.225Z,15.21
2022-09-28T09:04:26.488Z,14.93
2022-09-28T09:05:26.300Z,14.72
2022-09-28T09:06:26.260Z,14.59
2022-09-28T09:07:29.253Z,14.6
2022-09-28T09:08:26.216Z,14.66
2022-09-28T09:09:26.562Z,14.78
2022-09-28T09:10:26.214Z,15.02
2022-09-28T09:11:26.110Z,15.14
2022-09-28T09:12:26.227Z,15.04
2022-09-28T09:13:26.227Z,15.08
2022-09-28T09:14:26.591Z,14.98
2022-09-28T09:15:26.364Z,14.77
2022-09-28T09:16:26.313Z,14.59
2022-09-28T09:17:26.119Z,14.45
2022-09-28T09:18:29.199Z,14.34
2022-09-28T09:19:26.592Z,14.18
2022-09-28T09:20:26.224Z,14.03
2022-09-28T09:21:26.323Z,14.02
2022-09-28T09:22:26.123Z,14.14
2022-09-28T09:23:26.267Z,14.37
2022-09-28T09:24:26.512Z,14.58
2022-09-28T09:25:26.259Z,14.86
2022-09-28T09:26:26.416Z,15.19
2022-09-28T09:27:26.143Z,15.34
2022-09-28T09:28:26.238Z,15.21
2022-09-28T09:29:29.534Z,15.01
2022-09-28T09:30:29.091Z,14.94
2022-09-28T09:31:26.149Z,14.99
2022-09-28T09:32:26.174Z,15.1
2022-09-28T09:33:26.211Z,15.25
2022-09-28T09:34:26.491Z,15.3
2022-09-28T09:35:29.442Z,15.43
2022-09-28T09:36:26.135Z,15.58
2022-09-28T09:37:26.248Z,15.68
2022-09-28T09:38:26.214Z,15.72
2022-09-28T09:39:26.564Z,15.78
2022-09-28T09:40:29.234Z,15.84
2022-09-28T09:41:26.293Z,15.9
2022-09-28T09:42:26.192Z,16.09
2022-09-28T09:43:29.371Z,16.33
2022-09-28T09:44:26.567Z,16.51
2022-09-28T09:45:26.341Z,16.7
2022-09-28T09:46:26.292Z,16.9
2022-09-28T09:47:26.131Z,17.01
2022-09-28T09:48:26.252Z,16.98
2022-09-28T09:49:26.492Z,16.92
2022-09-28T09:50:26.325Z,17.05
2022-09-28T09:51:29.186Z,17.13
2022-09-28T09:52:26.388Z,17.17
2022-09-28T09:53:26.201Z,17.06
2022-09-28T09:54:26.569Z,16.97
2022-09-28T09:55:29.988Z,16.98
2022-09-28T09:56:26.139Z,16.83
2022-09-28T09:57:26.224Z,16.63
2022-09-28T09:58:26.273Z,16.59
2022-09-28T09:59:26.490Z,16.64
2022-09-28T10:00:26.226Z,16.66
2022-09-28T10:01:26.191Z,16.65
2022-09-28T10:02:29.204Z,16.55
2022-09-28T10:03:26.194Z,16.44
2022-09-28T10:04:26.598Z,16.26
2022-09-28T10:05:26.334Z,16.17
2022-09-28T10:06:26.219Z,16.23
2022-09-28T10:07:26.275Z,16.34
2022-09-28T10:08:26.134Z,16.29
2022-09-28T10:09:26.142Z,16.37
2022-09-28T10:10:26.569Z,16.41
2022-09-28T10:11:26.208Z,16.39
2022-09-28T10:12:26.258Z,16.39
2022-09-28T10:13:29.272Z,16.31
2022-09-28T10:14:26.498Z,16.26
2022-09-28T10:15:26.319Z,16.28
2022-09-28T10:16:26.391Z,16.37
2022-09-28T10:17:26.249Z,16.51
2022-09-28T10:18:26.241Z,16.66
2022-09-28T10:19:26.505Z,16.74
2022-09-28T10:20:26.279Z,16.7
2022-09-28T10:21:26.342Z,16.54
2022-09-28T10:22:26.330Z,16.47
2022-09-28T10:23:26.327Z,16.42
2022-09-28T10:24:32.177Z,16.39
2022-09-28T10:25:26.240Z,16.46
2022-09-28T10:26:26.126Z,16.51
2022-09-28T10:27:26.117Z,16.39
2022-09-28T10:28:26.141Z,16.36
2022-09-28T10:29:26.568Z,16.4
2022-09-28T10:30:26.245Z,16.42
2022-09-28T10:31:26.231Z,16.28
2022-09-28T10:32:26.254Z,16.27
2022-09-28T10:33:26.277Z,16.16
2022-09-28T10:34:26.492Z,16.13
2022-09-28T10:35:29.229Z,16.14
2022-09-28T10:36:26.301Z,16.13
2022-09-28T10:37:26.202Z,16.22
2022-09-28T10:38:26.198Z,16.29
2022-09-28T10:39:26.566Z,16.42
2022-09-28T10:40:26.345Z,16.58
2022-09-28T10:41:26.126Z,16.89
2022-09-28T10:42:26.272Z,17.07
2022-09-28T10:43:26.268Z,17.18
2022-09-28T10:44:26.568Z,17.09
2022-09-28T10:45:26.206Z,16.95
2022-09-28T10:46:29.221Z,16.9
2022-09-28T10:47:26.327Z,16.94
2022-09-28T10:48:26.118Z,16.76
2022-09-28T10:49:26.574Z,16.51
2022-09-28T10:50:26.206Z,16.32
2022-09-28T10:51:26.122Z,16.16
2022-09-28T10:52:26.125Z,15.97
2022-09-28T10:53:26.133Z,15.83
2022-09-28T10:54:26.216Z,16.08
2022-09-28T10:55:26.180Z,16.4
2022-09-28T10:56:26.215Z,16.36
2022-09-28T10:57:29.273Z,16.55
2022-09-28T10:58:26.184Z,17.05
2022-09-28T10:59:26.557Z,17.81
2022-09-28T11:00:26.213Z,18.28
2022-09-28T11:01:26.166Z,18.41
2022-09-28T11:02:26.283Z,18.59
2022-09-28T11:03:26.174Z,18.92
2022-09-28T11:04:26.572Z,19.18
2022-09-28T11:05:26.325Z,19.01
2022-09-28T11:06:26.319Z,18.4
2022-09-28T11:07:26.129Z,18.11
2022-09-28T11:08:29.310Z,17.9
2022-09-28T11:09:29.795Z,17.73
2022-09-28T11:10:26.325Z,17.51
2022-09-28T11:11:26.113Z,17.43
2022-09-28T11:12:26.136Z,17.41
2022-09-28T11:13:26.268Z,17.27
2022-09-28T11:14:26.492Z,17.07
2022-09-28T11:15:26.236Z,16.89
2022-09-28T11:16:26.350Z,16.76
2022-09-28T11:17:26.213Z,16.71
2022-09-28T11:18:26.273Z,16.63
2022-09-28T11:19:32.145Z,16.65
2022-09-28T11:20:28.204Z,16.65
2022-09-28T11:21:26.265Z,16.78
2022-09-28T11:22:26.304Z,16.94
2022-09-28T11:23:26.130Z,17.15
2022-09-28T11:24:26.865Z,17.24
2022-09-28T11:25:26.248Z,17.17
2022-09-28T11:26:26.158Z,17.05
2022-09-28T11:27:26.134Z,17.04
2022-09-28T11:28:26.224Z,16.97
2022-09-28T11:29:26.567Z,17.02
2022-09-28T11:30:29.238Z,17.02
2022-09-28T11:31:26.273Z,16.96
2022-09-28T11:32:26.133Z,17.06
2022-09-28T11:33:26.134Z,17.08
2022-09-28T11:34:41.550Z,17.05
2022-09-28T11:35:26.189Z,16.95
2022-09-28T11:36:26.134Z,16.93
2022-09-28T11:37:26.135Z,16.93
2022-09-28T11:38:26.119Z,16.9
2022-09-28T11:39:26.560Z,16.89
2022-09-28T11:40:26.315Z,16.91
2022-09-28T11:41:29.413Z,17.15
2022-09-28T11:42:26.323Z,17.2
2022-09-28T11:43:26.307Z,17.2
2022-09-28T11:44:29.507Z,17.23
2022-09-28T11:45:26.316Z,17.36
2022-09-28T11:46:26.260Z,17.39
2022-09-28T11:47:26.258Z,17.4
2022-09-28T11:48:26.218Z,17.48
2022-09-28T11:49:26.487Z,17.53
2022-09-28T11:50:26.277Z,17.68
2022-09-28T11:51:26.262Z,17.64
2022-09-28T11:52:29.253Z,17.61
2022-09-28T11:53:26.321Z,17.59
2022-09-28T11:54:26.247Z,17.64
2022-09-28T11:55:26.172Z,17.68
2022-09-28T11:56:26.148Z,17.66
2022-09-28T11:57:26.140Z,17.7
2022-09-28T11:58:26.195Z,17.7
2022-09-28T11:59:26.570Z,17.64
2022-09-28T12:00:26.340Z,17.58
2022-09-28T12:01:26.225Z,17.59
2022-09-28T12:02:26.247Z,17.64
2022-09-28T12:03:29.419Z,17.73
2022-09-28T12:04:26.554Z,17.76
2022-09-28T12:05:26.339Z,17.78
2022-09-28T12:06:26.286Z,17.7
2022-09-28T12:07:26.222Z,17.56
2022-09-28T12:08:26.272Z,17.46
2022-09-28T12:09:26.486Z,17.3
2022-09-28T12:10:26.149Z,17.14
2022-09-28T12:11:26.120Z,16.92
2022-09-28T12:12:26.188Z,16.84
2022-09-28T12:13:26.309Z,16.91
2022-09-28T12:14:32.212Z,16.89
2022-09-28T12:15:26.224Z,16.94
2022-09-28T12:16:45.678Z,16.92
2022-09-28T12:17:26.200Z,16.77
2022-09-28T12:18:26.102Z,16.71
2022-09-28T12:19:26.568Z,16.64
2022-09-28T12:20:26.117Z,16.52
2022-09-28T12:21:26.200Z,16.56
2022-09-28T12:22:26.212Z,16.52
2022-09-28T12:23:26.201Z,16.46
2022-09-28T12:24:26.566Z,16.41
2022-09-28T12:25:29.239Z,16.32
2022-09-28T12:26:26.341Z,16.24
2022-09-28T12:27:26.245Z,16.16
2022-09-28T12:28:26.289Z,16.19
2022-09-28T12:29:26.491Z,16.16
2022-09-28T12:30:26.209Z,16.19
2022-09-28T12:31:26.173Z,16.33
2022-09-28T12:32:26.286Z,16.35
2022-09-28T12:33:26.313Z,16.34
2022-09-28T12:34:26.565Z,16.39
2022-09-28T12:35:26.301Z,16.42
2022-09-28T12:36:29.257Z,16.32
2022-09-28T12:37:26.349Z,16.28
2022-09-28T12:38:26.294Z,16.28
2022-09-28T12:39:40.803Z,16.29
2022-09-28T12:40:26.263Z,16.34
2022-09-28T12:41:26.220Z,16.3
2022-09-28T12:42:26.294Z,16.37
2022-09-28T12:43:26.118Z,16.4
2022-09-28T12:44:26.493Z,16.38
2022-09-28T12:45:26.254Z,16.38
2022-09-28T12:46:26.299Z,16.42
2022-09-28T12:47:29.278Z,16.43
2022-09-28T12:48:26.237Z,16.4
2022-09-28T12:50:37.129Z,16.18
2022-09-28T12:50:41.584Z,16.02
2022-09-28T12:51:26.268Z,15.93
2022-09-28T12:52:26.199Z,15.93
2022-09-28T12:53:26.222Z,15.88
2022-09-28T12:54:26.562Z,15.81
2022-09-28T12:55:26.308Z,15.74
2022-09-28T12:56:26.208Z,15.75
2022-09-28T12:57:26.266Z,15.71
2022-09-28T12:58:29.199Z,15.59
2022-09-28T12:59:26.493Z,15.5
2022-09-28T13:00:26.267Z,15.39
2022-09-28T13:01:26.149Z,15.32
2022-09-28T13:02:26.232Z,15.29
2022-09-28T13:03:26.264Z,15.2
2022-09-28T13:04:26.583Z,15.17
2022-09-28T13:05:26.140Z,15.13
2022-09-28T13:06:26.106Z,15.16
2022-09-28T13:07:26.122Z,15.28